Terminal Aerodrome Forecast
Issued by NWS Cleveland, OH

Home | Current Version | Previous Version | Graphics & Text | Print | Product List | Glossary On
Versions: 1 2 3 4 5 6 7 8 9 10 11 12 13 14 15 16 17 18 19
000
FTUS41 KCLE 251400 AAA
TAFERI
TAF AMD
KERI 251417Z 2514/2612 30008KT P6SM -SHSN OVC025
     FM251600 32008KT P6SM SCT035
     FM252200 36005KT P6SM BKN250
     FM260400 04005KT P6SM OVC100=

USA.gov is the U.S. government's official web portal to all federal, state and local government web resources and services.